Japan Airlines Virtual Airport Information Service

Sapporo New Chitose Airport

ICAO: RJCC Country: Japan
Latitude: 42.7752 Longitude: 141.692
Latest Arrival : JAL2001 (RJOO-RJCC) Latest Departure : ANA1712 (RJCC-RJBB)


WX CaptureLIVE
Data provided by noaa.gov | Fetched at 13:30:48

METAR : RJCC 061300Z 16008KT 7000 FEW003 BKN006 BKN018 22/22 Q1008 RMK 1ST003 5ST006 7ST018 A2978

TAF : RJCC 061105Z 0612/0718 15020KT 9999 FEW004 BKN015 TEMPO 0612/0619 2000 -SHRA BR FEW001 BKN004 TEMPO 0619/0622 18025G35KT 1500 SHRA BR FEW001 BKN003 FEW025CB TEMPO 0622/0706 18030G40KT BECMG 0706/0709 24015KT BECMG 0709/0712 33015KT


Runway Data for RJCC
Data provided by openaviationdata.com

Runway ID Mag Var Hdg Length Elevation Surface ILS Freq ILS Id ILS Slope
01L -9 9851 ft 70 ft Asphalt 110.9 ICN 3
01R -9 9845 ft 70 ft Asphalt 110.75 ICH 3
19L -9 181° 9845 ft 70 ft Asphalt -- -- --
19R -9 181° 9851 ft 70 ft Asphalt 111.5 ICS 3

Sapporo New Chitose Airport, Japan
Use only for reference purposes



Not for navigational purposes.